Time;durP1;ratioP1;P1;durP2;ratioP2;P2;SDS_P1;SDS_P2;PMS_P1;PMS_P2;Temp;Humidity;BMP_temperature;BMP_pressure;BME280_temperature;BME280_humidity;BME280_pressure;Samples;Min_cycle;Max_cycle;Signal;HPM_P1;HPM_P2
2020/12/10 00:02:14;;;;;;;98.90;31.27;;;;;;;2.14;90.51;100638.34;5098869;28;20537;-60
2020/12/10 00:04:41;;;;;;;91.13;29.97;;;;;;;2.20;90.27;100628.63;5096400;28;20480;-61
2020/12/10 00:07:08;;;;;;;87.37;28.17;;;;;;;2.25;90.16;100622.22;5097627;28;20458;-61
2020/12/10 00:09:35;;;;;;;94.40;29.70;;;;;;;2.26;90.46;100629.06;5097747;28;20936;-60
2020/12/10 00:12:03;;;;;;;90.60;30.93;;;;;;;2.20;90.44;100631.16;5098211;28;20481;-60
2020/12/10 00:14:30;;;;;;;86.47;29.60;;;;;;;2.39;89.93;100629.97;5096421;28;20561;-61
2020/12/10 00:16:57;;;;;;;103.40;33.20;;;;;;;2.26;90.26;100629.06;5098291;28;20523;-60
2020/12/10 00:19:24;;;;;;;105.93;32.03;;;;;;;2.27;90.20;100624.88;5097129;28;20510;-60
2020/12/10 00:21:55;;;;;;;113.37;31.50;;;;;;;2.20;90.56;100625.22;5098528;28;20477;-60
2020/12/10 00:24:21;;;;;;;108.30;33.40;;;;;;;2.27;90.48;100620.66;5096330;28;20539;-60
2020/12/10 00:26:49;;;;;;;95.30;33.43;;;;;;;2.21;90.73;100619.34;5098310;28;20553;-61
2020/12/10 00:29:16;;;;;;;118.07;35.77;;;;;;;2.20;90.35;100617.56;5096783;28;20451;-60
2020/12/10 00:31:43;;;;;;;95.40;33.80;;;;;;;2.13;90.87;100619.66;5098259;28;20429;-60
2020/12/10 00:34:09;;;;;;;107.40;34.90;;;;;;;2.26;90.82;100618.91;5095965;28;20948;-60
2020/12/10 00:36:36;;;;;;;92.07;32.40;;;;;;;2.33;90.02;100624.44;5098184;28;20762;-60
2020/12/10 00:39:04;;;;;;;106.70;35.17;;;;;;;2.26;90.41;100618.91;5096093;28;20470;-60
2020/12/10 00:41:31;;;;;;;101.73;35.20;;;;;;;2.18;90.63;100617.47;5098120;28;20436;-60
2020/12/10 00:43:58;;;;;;;106.33;34.73;;;;;;;2.14;90.54;100613.81;5095393;28;20547;-60
2020/12/10 00:46:25;;;;;;;113.67;34.17;;;;;;;2.34;90.19;100616.00;5098051;28;20432;-61
2020/12/10 00:48:52;;;;;;;99.57;32.97;;;;;;;2.30;89.67;100607.28;5096619;28;20921;-61
2020/12/10 00:51:18;;;;;;;104.53;33.63;;;;;;;2.29;90.19;100601.31;5097952;28;20541;-61
2020/12/10 00:53:45;;;;;;;95.83;33.47;;;;;;;2.25;90.39;100606.94;5094595;28;20760;-61
2020/12/10 00:56:11;;;;;;;117.13;37.30;;;;;;;2.33;89.75;100604.06;5097431;28;20767;-61
2020/12/10 00:58:38;;;;;;;108.30;38.23;;;;;;;2.26;90.36;100606.16;5096267;28;20486;-61
2020/12/10 01:01:05;;;;;;;108.30;36.80;;;;;;;2.26;90.41;100606.16;5097758;28;20454;-61
2020/12/10 01:03:32;;;;;;;96.80;33.60;;;;;;;2.22;90.32;100601.66;5096062;28;20526;-61
2020/12/10 01:05:59;;;;;;;120.20;34.80;;;;;;;2.33;90.19;100604.06;5097117;28;20479;-61
2020/12/10 01:08:26;;;;;;;109.83;35.30;;;;;;;2.14;90.44;100600.19;5095564;28;20480;-61
2020/12/10 01:10:52;;;;;;;114.80;35.67;;;;;;;2.18;90.61;100596.19;5097692;28;20460;-61
2020/12/10 01:13:19;;;;;;;97.73;35.10;;;;;;;2.24;90.36;100602.63;5095845;28;20482;-61
2020/12/10 01:15:46;;;;;;;112.23;35.83;;;;;;;2.17;90.15;100605.50;5097128;28;20937;-61
2020/12/10 01:18:13;;;;;;;114.97;38.40;;;;;;;2.29;89.85;100602.97;5095542;28;20470;-60
2020/12/10 01:20:40;;;;;;;95.40;33.13;;;;;;;2.25;89.82;100609.50;5097158;28;20450;-61
2020/12/10 01:23:07;;;;;;;85.87;29.73;;;;;;;2.58;92.08;100605.84;5095928;28;20445;-61
2020/12/10 01:25:33;;;;;;;107.57;34.13;;;;;;;2.65;89.43;100608.03;5096822;28;20470;-61
2020/12/10 01:28:00;;;;;;;90.43;31.10;;;;;;;2.79;90.36;100597.19;5095562;28;20470;-61
2020/12/10 01:30:26;;;;;;;112.23;37.07;;;;;;;2.76;88.63;100602.03;5097130;28;20432;-61
2020/12/10 01:32:53;;;;;;;97.20;34.17;;;;;;;2.73;87.71;100599.28;5095423;28;20449;-61
2020/12/10 01:35:21;;;;;;;100.33;34.50;;;;;;;2.76;88.46;100603.72;5096307;28;20559;-61
2020/12/10 01:37:47;;;;;;;93.40;33.43;;;;;;;2.94;88.98;100591.38;5084497;28;20972;-61
2020/12/10 01:40:14;;;;;;;107.87;33.60;;;;;;;2.78;87.26;100595.38;5096050;28;20478;-61
2020/12/10 01:42:41;;;;;;;96.87;34.10;;;;;;;2.59;88.07;100589.75;5094942;28;20460;-62
2020/12/10 01:45:08;;;;;;;96.87;34.90;;;;;;;2.45;88.33;100588.81;5096531;28;20581;-61
2020/12/10 01:47:34;;;;;;;90.70;33.73;;;;;;;2.46;88.54;100580.38;5097080;28;20557;-61
2020/12/10 01:50:01;;;;;;;97.53;33.53;;;;;;;2.45;88.42;100584.56;5094950;28;20486;-61
2020/12/10 01:52:28;;;;;;;85.70;33.47;;;;;;;2.36;88.72;100587.34;5096720;28;20459;-61
2020/12/10 01:54:55;;;;;;;93.80;34.77;;;;;;;2.34;88.72;100577.81;5094229;28;20510;-61
2020/12/10 01:57:22;;;;;;;98.57;34.50;;;;;;;2.25;88.83;100580.63;5096759;28;20763;-61
2020/12/10 01:59:49;;;;;;;86.83;32.47;;;;;;;2.20;89.08;100567.53;5094913;28;20474;-61
2020/12/10 02:02:15;;;;;;;92.30;34.27;;;;;;;2.33;89.24;100582.03;5096389;28;20446;-61
2020/12/10 02:04:43;;;;;;;90.77;32.17;;;;;;;2.33;88.80;100583.69;5088402;28;20776;-61
2020/12/10 02:07:10;;;;;;;88.37;34.33;;;;;;;2.26;88.80;100573.06;5096565;28;20439;-61
2020/12/10 02:09:37;;;;;;;93.37;33.97;;;;;;;2.27;88.91;100563.78;5094010;28;20831;-61
2020/12/10 02:12:04;;;;;;;93.43;32.20;;;;;;;2.19;88.98;100565.75;5096293;28;20516;-61
2020/12/10 02:14:32;;;;;;;86.87;34.10;;;;;;;2.20;89.20;100564.97;5094008;28;20492;-61
2020/12/10 02:16:59;;;;;;;90.83;32.90;;;;;;;2.22;89.05;100565.09;5096227;28;20546;-60
2020/12/10 02:19:25;;;;;;;89.20;34.17;;;;;;;2.12;89.31;100561.00;5094563;28;20909;-61
2020/12/10 02:21:52;;;;;;;84.73;32.90;;;;;;;2.23;89.21;100561.78;5096279;28;20544;-61
2020/12/10 02:24:19;;;;;;;90.00;32.80;;;;;;;2.24;88.97;100558.44;5094367;28;20809;-61
2020/12/10 02:26:47;;;;;;;95.33;35.70;;;;;;;2.22;89.05;100558.34;5096014;28;20496;-61
2020/12/10 02:29:16;;;;;;;88.33;34.53;;;;;;;2.20;88.91;100556.47;5083762;28;20478;-60
2020/12/10 02:31:43;;;;;;;102.07;34.13;;;;;;;2.21;89.03;100548.94;5095568;28;20724;-61
2020/12/10 02:34:10;;;;;;;99.27;34.90;;;;;;;2.26;88.49;100552.69;5093448;28;20478;-60
2020/12/10 02:36:37;;;;;;;111.50;36.93;;;;;;;2.10;89.15;100545.63;5095560;28;20470;-60
2020/12/10 02:39:05;;;;;;;114.17;36.50;;;;;;;2.14;89.06;100545.06;5094302;28;20456;-60
2020/12/10 02:41:33;;;;;;;98.17;34.53;;;;;;;2.21;89.01;100543.84;5096015;28;20556;-60
2020/12/10 02:44:00;;;;;;;114.90;36.80;;;;;;;2.22;88.81;100539.63;5093342;28;20489;-61
2020/12/10 02:46:27;;;;;;;101.67;35.10;;;;;;;2.13;88.90;100544.94;5096150;28;20440;-61
2020/12/10 02:48:54;;;;;;;97.07;36.20;;;;;;;2.14;89.11;100551.81;5094038;28;20480;-61
2020/12/10 02:51:20;;;;;;;99.37;35.97;;;;;;;2.26;88.60;100542.50;5095894;28;20549;-60
2020/12/10 02:53:47;;;;;;;93.77;37.63;;;;;;;2.20;89.00;100541.19;5093996;28;20901;-61
2020/12/10 02:56:15;;;;;;;97.10;33.90;;;;;;;2.24;88.98;100535.53;5095702;28;20541;-60
2020/12/10 02:58:43;;;;;;;96.47;35.30;;;;;;;2.20;88.80;100531.88;5094248;28;20453;-61
2020/12/10 03:01:10;;;;;;;97.40;34.33;;;;;;;2.23;88.77;100527.03;5095800;28;20428;-61
2020/12/10 03:03:37;;;;;;;95.90;32.63;;;;;;;2.19;88.72;100526.72;5094592;28;20453;-61
2020/12/10 03:06:05;;;;;;;93.13;32.73;;;;;;;2.14;88.82;100521.25;5095350;28;20454;-60
2020/12/10 03:08:32;;;;;;;82.83;32.63;;;;;;;2.14;89.14;100516.16;5094048;28;20474;-61
2020/12/10 03:10:59;;;;;;;89.37;33.23;;;;;;;2.11;89.25;100521.91;5095765;28;20566;-61
2020/12/10 03:13:26;;;;;;;89.77;35.33;;;;;;;2.24;88.86;100513.50;5093793;28;20770;-61
2020/12/10 03:15:54;;;;;;;85.57;32.50;;;;;;;2.19;88.74;100509.75;5095484;28;20477;-61
2020/12/10 03:18:20;;;;;;;83.47;33.50;;;;;;;2.16;88.87;100512.97;5094082;28;20939;-61
2020/12/10 03:20:47;;;;;;;84.77;33.30;;;;;;;2.12;88.90;100518.63;5095643;28;20549;-60
2020/12/10 03:23:14;;;;;;;79.53;31.60;;;;;;;2.02;89.28;100517.06;5093802;28;20485;-61
2020/12/10 03:25:40;;;;;;;83.40;31.20;;;;;;;2.01;89.26;100515.28;5095140;28;20474;-60
2020/12/10 03:28:07;;;;;;;84.30;31.33;;;;;;;2.14;89.14;100508.53;5093892;28;20476;-61
2020/12/10 03:30:34;;;;;;;80.50;31.57;;;;;;;2.08;89.34;100505.53;5095504;28;20439;-61
2020/12/10 03:33:01;;;;;;;81.20;32.43;;;;;;;2.02;89.58;100508.53;5093967;28;20745;-61
2020/12/10 03:35:28;;;;;;;83.23;31.77;;;;;;;2.01;89.62;100516.97;5094850;28;20530;-60
2020/12/10 03:37:55;;;;;;;83.30;31.97;;;;;;;2.12;88.60;100508.44;5093709;28;20458;-61
2020/12/10 03:40:22;;;;;;;87.70;31.93;;;;;;;2.12;88.71;100508.44;5095693;28;20461;-61
2020/12/10 03:42:48;;;;;;;76.70;29.97;;;;;;;2.01;89.26;100509.31;5097037;28;20436;-61
2020/12/10 03:45:15;;;;;;;129.13;44.40;;;;;;;2.17;91.00;100503.69;5098870;28;20459;-61
2020/12/10 03:47:41;;;;;;;145.57;52.00;;;;;;;2.20;91.77;100498.78;5097488;28;20454;-63
2020/12/10 03:50:09;;;;;;;139.57;48.63;;;;;;;2.25;92.67;100497.47;5098726;28;20953;-63
2020/12/10 03:52:36;;;;;;;155.63;57.30;;;;;;;2.26;92.07;100496.69;5099186;28;20544;-61
2020/12/10 03:55:03;;;;;;;107.93;43.23;;;;;;;2.26;91.36;100499.22;5087419;28;20514;-61
2020/12/10 03:57:29;;;;;;;102.50;37.40;;;;;;;2.22;91.14;100492.16;5085567;28;20443;-61
2020/12/10 03:59:56;;;;;;;91.93;37.30;;;;;;;2.15;90.96;100487.38;5090871;28;20456;-61
2020/12/10 04:02:23;;;;;;;80.50;33.00;;;;;;;2.29;89.85;100491.81;5098894;28;20951;-61
2020/12/10 04:04:50;;;;;;;83.13;32.00;;;;;;;2.14;89.37;100488.16;5097333;28;20514;-60
2020/12/10 04:07:17;;;;;;;87.73;34.57;;;;;;;2.17;90.32;100485.84;5099084;28;20429;-61
2020/12/10 04:09:44;;;;;;;82.10;31.90;;;;;;;2.18;89.81;100495.25;5097073;28;20579;-61
2020/12/10 04:12:11;;;;;;;102.17;41.23;;;;;;;2.20;90.14;100492.84;5098892;28;20523;-61
2020/12/10 04:14:38;;;;;;;76.03;32.10;;;;;;;2.13;89.83;100492.38;5096620;28;20576;-61
2020/12/10 04:17:04;;;;;;;71.00;29.57;;;;;;;2.11;89.93;100490.50;5098626;28;20443;-61
2020/12/10 04:19:31;;;;;;;86.70;34.83;;;;;;;2.25;90.46;100488.97;5096241;28;20484;-61
2020/12/10 04:21:58;;;;;;;77.23;32.10;;;;;;;2.22;89.47;100489.63;5098607;28;20515;-61
2020/12/10 04:24:25;;;;;;;70.37;28.50;;;;;;;2.07;89.30;100493.59;5096212;28;20482;-61
2020/12/10 04:26:52;;;;;;;65.73;27.77;;;;;;;2.15;89.40;100488.28;5098525;28;20775;-60
2020/12/10 04:29:18;;;;;;;67.17;28.00;;;;;;;1.94;89.46;100497.81;5096840;28;20561;-63
2020/12/10 04:31:45;;;;;;;63.90;27.03;;;;;;;2.02;88.81;100496.69;5098160;28;20454;-62
2020/12/10 04:34:11;;;;;;;63.93;27.70;;;;;;;1.98;88.73;100494.72;5096266;28;20492;-63
2020/12/10 04:36:39;;;;;;;66.17;25.17;;;;;;;1.92;89.00;100499.38;5098467;28;20517;-63
2020/12/10 04:39:05;;;;;;;51.23;23.70;;;;;;;2.02;88.76;100501.78;5092148;28;20458;-63
2020/12/10 04:41:36;;;;;;;59.07;26.30;;;;;;;2.06;88.28;100504.56;5098133;28;20545;-60
2020/12/10 04:44:02;;;;;;;61.40;25.03;;;;;;;1.99;88.66;100499.03;5095941;28;20445;-61
2020/12/10 04:46:29;;;;;;;56.50;25.03;;;;;;;2.08;88.31;100501.34;5098025;28;20553;-61
2020/12/10 04:48:57;;;;;;;58.07;25.37;;;;;;;2.24;87.83;100498.25;5096818;28;20447;-61
2020/12/10 04:51:24;;;;;;;56.97;25.63;;;;;;;2.30;87.35;100497.78;5098286;28;20882;-60
2020/12/10 04:53:51;;;;;;;52.13;24.30;;;;;;;2.27;87.56;100495.91;5091136;28;20458;-61
2020/12/10 04:56:18;;;;;;;60.03;26.50;;;;;;;2.13;87.96;100504.22;5097579;28;20501;-61
2020/12/10 04:58:46;;;;;;;56.33;24.43;;;;;;;2.09;88.31;100492.03;5096365;28;20508;-61
2020/12/10 05:01:15;;;;;;;56.03;23.53;;;;;;;1.94;88.61;100497.81;5097978;28;20435;-61
2020/12/10 05:03:45;;;;;;;58.80;24.93;;;;;;;2.11;88.82;100498.16;5096078;28;20492;-60
2020/12/10 05:06:13;;;;;;;57.70;24.83;;;;;;;2.04;88.41;100496.81;5097452;28;20744;-61
2020/12/10 05:08:40;;;;;;;54.63;24.73;;;;;;;1.95;88.84;100497.03;5096128;28;20766;-61
2020/12/10 05:11:07;;;;;;;50.90;22.87;;;;;;;2.00;88.26;100498.25;5097823;28;20802;-60
2020/12/10 05:13:34;;;;;;;59.20;24.90;;;;;;;2.08;88.63;100495.38;5085403;28;20492;-61
2020/12/10 05:16:01;;;;;;;60.40;24.17;;;;;;;2.02;88.38;100488.19;5096906;28;20478;-61
2020/12/10 05:18:28;;;;;;;54.60;23.30;;;;;;;1.93;88.60;100493.50;5095929;28;20539;-61
2020/12/10 05:20:57;;;;;;;53.90;23.57;;;;;;;1.98;88.52;100494.72;5097490;28;20473;-61
2020/12/10 05:23:32;;;;;;;60.10;23.90;;;;;;;2.01;88.28;100489.84;5095779;28;20486;-60
2020/12/10 05:26:02;;;;;;;50.50;23.20;;;;;;;1.95;88.20;100494.47;5097283;28;20564;-61
2020/12/10 05:28:39;;;;;;;50.10;22.73;;;;;;;2.06;88.75;100499.47;5095807;28;20452;-61
2020/12/10 05:31:08;;;;;;;53.83;22.87;;;;;;;2.06;88.08;100496.91;5097578;28;20540;-60
2020/12/10 05:33:35;;;;;;;51.57;23.50;;;;;;;2.02;88.18;100496.69;5095550;28;20494;-61
2020/12/10 05:36:09;;;;;;;51.30;22.60;;;;;;;2.07;88.08;100494.50;5096940;28;20882;-62
2020/12/10 05:38:55;;;;;;;52.50;24.17;;;;;;;2.16;87.86;100495.13;5095517;28;20448;-63
2020/12/10 05:41:23;;;;;;;52.17;23.80;;;;;;;2.10;87.77;100488.75;5097180;28;20557;-63
2020/12/10 05:43:50;;;;;;;54.00;22.43;;;;;;;1.95;88.18;100497.03;5095449;28;20478;-63
2020/12/10 05:46:19;;;;;;;46.13;21.20;;;;;;;1.99;88.08;100501.56;5096559;28;20458;-63
2020/12/10 05:48:47;;;;;;;46.50;21.80;;;;;;;2.04;88.30;100504.44;5095510;28;20456;-63
2020/12/10 05:51:19;;;;;;;57.83;25.73;;;;;;;2.07;88.06;100497.03;5097349;28;20429;-63
2020/12/10 05:53:46;;;;;;;55.37;23.97;;;;;;;2.13;87.83;100494.94;5094974;28;20514;-63
2020/12/10 05:56:14;;;;;;;55.10;23.93;;;;;;;2.00;88.25;100498.25;5096545;28;20435;-62
2020/12/10 05:58:51;;;;;;;62.13;25.00;;;;;;;1.95;88.18;100496.16;5095016;28;20916;-62
2020/12/10 06:01:42;;;;;;;62.33;24.37;;;;;;;1.88;88.79;100500.81;5096750;28;20523;-62
2020/12/10 06:04:13;;;;;;;56.00;24.23;;;;;;;2.13;90.11;100499.13;5089436;28;20469;-63
2020/12/10 06:06:40;;;;;;;62.33;25.50;;;;;;;2.60;91.40;100507.50;5096143;28;20458;-63
2020/12/10 06:09:07;;;;;;;74.93;29.00;;;;;;;2.50;88.79;100505.94;5095169;28;20523;-63
2020/12/10 06:11:35;;;;;;;70.87;27.13;;;;;;;2.76;89.16;100495.03;5096746;28;20454;-63
2020/12/10 06:14:03;;;;;;;75.53;27.63;;;;;;;2.69;88.51;100503.94;5094466;28;20545;-62
2020/12/10 06:16:30;;;;;;;80.33;29.03;;;;;;;2.54;87.56;100501.19;5096513;28;20424;-63
2020/12/10 06:19:03;;;;;;;82.73;30.90;;;;;;;2.72;87.64;100507.44;5095061;28;20488;-63
2020/12/10 06:21:38;;;;;;;65.70;27.97;;;;;;;2.53;86.81;100503.63;5096388;28;20939;-63
2020/12/10 06:24:34;;;;;;;75.90;28.53;;;;;;;2.69;87.26;100503.03;5094586;28;20921;-62
2020/12/10 06:27:01;;;;;;;83.37;31.27;;;;;;;2.57;86.72;100505.63;5096390;28;20511;-62
2020/12/10 06:29:29;;;;;;;80.03;29.67;;;;;;;2.70;86.69;100508.25;5094302;28;20486;-63
2020/12/10 06:32:07;;;;;;;87.77;32.00;;;;;;;2.68;86.73;100506.34;5096386;28;20462;-63
2020/12/10 06:34:37;;;;;;;90.63;29.23;;;;;;;2.64;87.09;100504.38;5093931;28;20909;-62
2020/12/10 06:37:31;;;;;;;83.43;31.40;;;;;;;2.54;86.52;100508.84;5095784;28;20450;-62
2020/12/10 06:39:59;;;;;;;83.77;29.43;;;;;;;2.27;87.49;100507.75;5038831;28;20533;-61
2020/12/10 06:42:29;;;;;;;84.33;30.97;;;;;;;2.28;87.72;100510.44;5075840;28;20809;-61
2020/12/10 06:44:55;;;;;;;79.40;30.57;;;;;;;2.24;87.81;100499.88;5073499;28;20461;-61
2020/12/10 06:47:40;;;;;;;75.47;27.80;;;;;;;2.30;87.51;100507.97;5075830;28;20472;-61
2020/12/10 06:50:21;;;;;;;88.53;30.17;;;;;;;2.20;87.90;100506.44;5075587;28;20486;-60
2020/12/10 06:53:15;;;;;;;93.03;32.27;;;;;;;2.10;88.42;100504.03;5074369;28;20437;-61
2020/12/10 06:56:02;;;;;;;88.73;30.80;;;;;;;2.13;88.39;100509.31;5075306;28;20453;-60
2020/12/10 06:58:55;;;;;;;95.10;30.13;;;;;;;2.02;88.93;100506.88;5074249;28;20502;-60
2020/12/10 07:01:26;;;;;;;90.07;29.73;;;;;;;1.95;88.95;100503.78;5075783;28;20437;-60
2020/12/10 07:04:11;;;;;;;95.43;31.37;;;;;;;1.96;89.23;100509.00;5073974;28;20976;-60
2020/12/10 07:06:39;;;;;;;82.77;28.83;;;;;;;2.05;88.59;100507.88;5075938;28;20425;-60
2020/12/10 07:09:06;;;;;;;67.67;27.00;;;;;;;1.97;88.32;100508.22;5074013;28;20579;-61
2020/12/10 07:11:35;;;;;;;75.03;27.07;;;;;;;1.91;88.38;100517.97;5075859;28;20436;-60
2020/12/10 07:14:03;;;;;;;66.63;25.20;;;;;;;1.83;88.81;100517.38;5073537;28;20464;-61
2020/12/10 07:16:31;;;;;;;55.37;23.60;;;;;;;1.99;88.20;100516.84;5076785;28;20764;-60
2020/12/10 07:18:58;;;;;;;60.93;23.67;;;;;;;2.00;87.93;100518.59;5077968;28;20467;-60
2020/12/10 07:21:25;;;;;;;52.73;22.80;;;;;;;1.83;88.22;100519.03;5079586;28;20524;-60
2020/12/10 07:23:54;;;;;;;58.33;22.93;;;;;;;1.88;88.65;100521.16;5077867;28;20484;-61
2020/12/10 07:26:20;;;;;;;57.10;22.03;;;;;;;1.86;88.71;100524.38;5079398;28;20429;-60
2020/12/10 07:28:47;;;;;;;55.33;22.87;;;;;;;1.85;88.87;100525.13;5077854;28;20536;-61
2020/12/10 07:31:16;;;;;;;57.80;24.00;;;;;;;1.84;88.44;100536.09;5079077;28;20856;-60
2020/12/10 07:33:43;;;;;;;61.30;24.83;;;;;;;1.87;88.61;100524.47;5077223;28;20762;-60
2020/12/10 07:36:10;;;;;;;63.20;26.20;;;;;;;1.68;89.11;100528.97;5078877;28;20491;-60
2020/12/10 07:38:37;;;;;;;64.37;23.50;;;;;;;1.73;88.71;100532.75;5077606;28;20465;-60
2020/12/10 07:41:06;;;;;;;62.53;23.20;;;;;;;1.78;88.92;100540.72;5079087;28;20810;-60
2020/12/10 07:43:32;;;;;;;60.93;24.27;;;;;;;1.66;88.95;100540.69;5077281;28;20486;-60
2020/12/10 07:45:59;;;;;;;72.40;24.13;;;;;;;1.72;89.21;100542.03;5078720;28;20453;-60
2020/12/10 07:48:26;;;;;;;56.03;23.80;;;;;;;1.65;89.11;100541.47;5077518;28;20461;-60
2020/12/10 07:50:52;;;;;;;60.93;23.03;;;;;;;1.72;89.38;100538.59;5078920;28;20433;-60
2020/12/10 07:53:19;;;;;;;60.67;23.90;;;;;;;1.87;88.68;100539.75;5067940;28;20474;-60
2020/12/10 07:55:53;;;;;;;62.90;24.47;;;;;;;1.77;88.84;100544.03;5089658;28;20454;-60
2020/12/10 07:58:28;;;;;;;66.90;24.47;;;;;;;1.69;89.39;100539.25;5077359;28;21052;-60
2020/12/10 08:00:58;;;;;;;59.57;23.80;;;;;;;1.74;89.05;100537.06;5078837;28;20520;-60
2020/12/10 08:03:26;;;;;;;70.23;24.97;;;;;;;1.73;89.06;100530.19;5077152;28;20457;-60
2020/12/10 08:06:00;;;;;;;65.77;24.50;;;;;;;1.74;89.00;100535.41;5078215;28;20908;-60
2020/12/10 08:08:35;;;;;;;69.10;25.67;;;;;;;1.68;89.18;100532.41;5076906;28;20488;-60
2020/12/10 08:11:09;;;;;;;71.70;26.10;;;;;;;1.67;89.62;100530.63;5078707;28;20430;-60
2020/12/10 08:13:37;;;;;;;62.83;25.90;;;;;;;1.77;89.73;100526.22;5084115;28;20576;-61
2020/12/10 08:16:08;;;;;;;69.67;27.07;;;;;;;1.73;90.07;100535.28;5098382;28;20453;-60
2020/12/10 08:18:35;;;;;;;76.77;27.20;;;;;;;1.68;89.56;100527.31;5097253;28;20508;-61
2020/12/10 08:21:05;;;;;;;71.73;25.47;;;;;;;1.71;89.71;100519.03;5098640;28;20545;-60
2020/12/10 08:23:43;;;;;;;71.07;26.57;;;;;;;1.86;89.05;100521.81;5097186;28;20804;-62
2020/12/10 08:26:11;;;;;;;77.87;27.47;;;;;;;1.68;88.87;100527.31;5098235;28;20946;-62
2020/12/10 08:28:38;;;;;;;71.60;28.03;;;;;;;1.59;89.25;100524.13;5095762;28;20543;-62
2020/12/10 08:31:05;;;;;;;72.10;27.87;;;;;;;1.69;89.41;100531.63;5098371;28;20482;-63
2020/12/10 08:33:35;;;;;;;76.00;28.20;;;;;;;1.70;88.88;100523.22;5096659;28;20481;-61
2020/12/10 08:36:03;;;;;;;73.47;27.20;;;;;;;1.69;89.08;100523.13;5098096;28;20444;-61
2020/12/10 08:38:29;;;;;;;86.37;28.73;;;;;;;1.57;89.23;100525.63;5096923;28;20487;-61
2020/12/10 08:40:57;;;;;;;86.97;29.73;;;;;;;1.70;88.95;100517.25;5098049;28;20446;-60
2020/12/10 08:43:24;;;;;;;84.00;28.40;;;;;;;1.72;88.62;100511.53;5096635;28;20459;-60
2020/12/10 08:45:52;;;;;;;85.27;29.60;;;;;;;1.64;88.80;100512.59;5097558;28;20506;-60
2020/12/10 08:48:29;;;;;;;77.70;28.40;;;;;;;1.65;89.31;100516.94;5096487;28;20460;-61
2020/12/10 08:50:56;;;;;;;83.80;30.53;;;;;;;1.82;88.93;100510.53;5098235;28;20844;-60
2020/12/10 08:53:23;;;;;;;90.30;30.40;;;;;;;1.79;88.43;100517.06;5096438;28;20463;-60
2020/12/10 08:55:51;;;;;;;98.63;31.20;;;;;;;1.67;88.13;100517.03;5097517;28;20858;-60
2020/12/10 08:58:19;;;;;;;92.97;30.63;;;;;;;1.78;87.79;100522.94;5094639;28;20484;-61
2020/12/10 09:00:52;;;;;;;94.82;33.47;;;;;;;1.78;88.07;100512.75;5097894;28;20859;-61
2020/12/10 09:03:19;;;;;;;90.63;31.57;;;;;;;1.75;88.27;100509.19;5096558;28;20262;-60
2020/12/10 09:05:46;;;;;;;97.37;31.37;;;;;;;1.80;87.87;100513.72;5097627;28;20837;-60
2020/12/10 09:08:13;;;;;;;98.87;33.67;;;;;;;1.69;88.46;100521.47;5096211;28;20530;-60
2020/12/10 09:10:40;;;;;;;95.47;32.70;;;;;;;1.73;88.45;100522.56;5097751;28;20486;-60
2020/12/10 09:13:08;;;;;;;90.23;31.70;;;;;;;1.81;88.88;100512.97;5095889;28;20451;-61
2020/12/10 09:15:40;;;;;;;105.37;33.27;;;;;;;1.75;89.14;100521.03;5097251;28;20839;-60
2020/12/10 09:18:09;;;;;;;107.97;34.60;;;;;;;1.71;88.94;100514.84;5095795;28;20764;-60
2020/12/10 09:20:36;;;;;;;99.70;31.63;;;;;;;1.54;90.32;100510.16;5097429;28;20535;-60
2020/12/10 09:23:03;;;;;;;103.07;32.80;;;;;;;1.70;89.64;100510.50;5095915;28;20477;-61
2020/12/10 09:25:30;;;;;;;94.20;31.17;;;;;;;1.66;89.12;100510.16;5095309;28;20456;-61
2020/12/10 09:27:57;;;;;;;100.90;30.93;;;;;;;1.61;89.55;100512.38;5095344;28;20473;-60
2020/12/10 09:30:23;;;;;;;101.33;31.80;;;;;;;1.71;89.31;100511.41;5097066;28;20519;-60
2020/12/10 09:32:51;;;;;;;98.10;32.30;;;;;;;1.57;89.57;100505.28;5095774;28;20446;-60
2020/12/10 09:35:19;;;;;;;106.20;29.70;;;;;;;1.56;89.66;100506.06;5096384;28;20544;-61
2020/12/10 09:37:45;;;;;;;83.90;29.00;;;;;;;1.51;89.84;100502.28;5095487;28;20446;-61
2020/12/10 09:40:13;;;;;;;94.37;30.37;;;;;;;1.50;90.13;100503.97;5096525;28;20502;-60
2020/12/10 09:42:41;;;;;;;85.17;31.80;;;;;;;1.51;89.89;100500.66;5095152;28;20478;-61
2020/12/10 09:45:13;;;;;;;92.77;32.00;;;;;;;1.58;89.50;100494.34;5096578;28;20513;-61
2020/12/10 09:47:41;;;;;;;79.50;29.13;;;;;;;1.66;89.06;100484.72;5095494;28;20540;-62
2020/12/10 09:50:17;;;;;;;77.90;27.70;;;;;;;1.66;89.02;100492.38;5096512;28;20929;-61
2020/12/10 09:52:52;;;;;;;88.63;32.67;;;;;;;1.70;88.92;100492.69;5095165;28;20457;-61
2020/12/10 09:55:35;;;;;;;80.53;28.80;;;;;;;1.83;88.72;100488.50;5096270;28;20563;-60
2020/12/10 09:58:01;;;;;;;79.97;28.23;;;;;;;1.67;88.90;100492.47;5090322;28;20452;-60
2020/12/10 10:00:28;;;;;;;73.90;29.07;;;;;;;1.77;88.12;100493.13;5096378;28;20453;-60
2020/12/10 10:02:55;;;;;;;85.20;29.10;;;;;;;1.77;88.50;100494.03;5095564;28;20432;-61
2020/12/10 10:05:22;;;;;;;79.67;30.20;;;;;;;1.78;88.09;100494.94;5095980;28;20480;-60
2020/12/10 10:07:50;;;;;;;76.87;28.63;;;;;;;1.71;88.47;100497.03;5095162;28;20571;-60
2020/12/10 10:10:16;;;;;;;78.80;31.43;;;;;;;1.83;87.85;100493.59;5096411;28;20551;-60
2020/12/10 10:12:43;;;;;;;79.60;30.10;;;;;;;1.67;87.53;100492.47;5094399;28;20911;-61
2020/12/10 10:15:09;;;;;;;70.80;29.67;;;;;;;1.59;88.24;100488.50;5095674;28;20496;-60
2020/12/10 10:17:36;;;;;;;79.53;27.63;;;;;;;1.58;88.87;100497.78;5096195;28;20470;-60
2020/12/10 10:20:03;;;;;;;80.97;28.70;;;;;;;1.57;88.25;100487.47;5094728;28;20478;-60
2020/12/10 10:22:31;;;;;;;82.73;29.17;;;;;;;1.79;87.51;100481.44;5095891;28;20460;-60
2020/12/10 10:24:59;;;;;;;78.13;28.97;;;;;;;1.74;87.65;100484.53;5094216;28;20482;-61
2020/12/10 10:27:26;;;;;;;84.20;31.10;;;;;;;1.69;87.99;100483.28;5096695;28;20446;-61
2020/12/10 10:29:53;;;;;;;76.23;29.63;;;;;;;1.66;88.46;100479.66;5094710;28;20477;-61
2020/12/10 10:32:20;;;;;;;80.03;30.17;;;;;;;1.70;88.00;100477.44;5095979;28;20511;-60
2020/12/10 10:34:47;;;;;;;88.70;30.47;;;;;;;1.64;88.37;100482.06;5093607;28;20511;-60
2020/12/10 10:37:13;;;;;;;80.63;30.90;;;;;;;1.61;88.34;100472.59;5096104;28;20545;-61
2020/12/10 10:39:40;;;;;;;84.93;28.80;;;;;;;1.78;88.40;100466.97;5094469;28;20531;-61
2020/12/10 10:42:08;;;;;;;85.47;31.40;;;;;;;1.62;88.30;100470.91;5096011;28;20437;-61
2020/12/10 10:44:35;;;;;;;95.00;33.77;;;;;;;1.79;87.44;100469.59;5093516;28;20599;-60
2020/12/10 10:47:01;;;;;;;99.33;34.23;;;;;;;1.64;88.17;100463.41;5095898;28;20432;-60
2020/12/10 10:49:28;;;;;;;80.87;32.60;;;;;;;1.65;88.17;100462.63;5094049;28;20954;-60
2020/12/10 10:51:55;;;;;;;85.07;31.30;;;;;;;1.67;88.33;100459.41;5098134;28;20456;-60
2020/12/10 10:54:21;;;;;;;88.17;33.03;;;;;;;1.72;87.37;100457.19;5097116;28;20465;-60
2020/12/10 10:56:48;;;;;;;96.87;35.00;;;;;;;1.67;87.89;100450.88;5099956;28;20439;-60
2020/12/10 10:59:15;;;;;;;93.30;33.87;;;;;;;1.71;88.34;100453.78;5097998;28;20460;-61
2020/12/10 11:01:42;;;;;;;98.97;32.20;;;;;;;1.86;87.12;100445.47;5099922;28;20920;-63
2020/12/10 11:04:09;;;;;;;78.00;30.00;;;;;;;1.69;87.35;100444.28;5097662;28;20553;-61
2020/12/10 11:06:35;;;;;;;95.03;31.30;;;;;;;1.74;87.51;100437.84;5099911;28;20458;-60
2020/12/10 11:09:02;;;;;;;83.37;30.60;;;;;;;1.74;87.76;100435.28;5098151;28;20477;-61
2020/12/10 11:11:29;;;;;;;78.93;29.90;;;;;;;1.70;87.85;100438.41;5099802;28;20532;-62
2020/12/10 11:13:55;;;;;;;87.40;33.30;;;;;;;1.75;87.93;100440.50;5097578;28;20539;-63
2020/12/10 11:16:23;;;;;;;83.57;32.37;;;;;;;1.86;87.00;100436.16;5099977;28;20588;-62
2020/12/10 11:18:50;;;;;;;85.33;33.10;;;;;;;1.78;87.44;100431.34;5097087;28;20534;-62
2020/12/10 11:21:16;;;;;;;78.57;30.80;;;;;;;1.80;87.20;100427.22;5099482;28;20889;-62
2020/12/10 11:23:43;;;;;;;87.23;32.00;;;;;;;1.83;87.44;100430.88;5097901;28;20478;-62